createdAt,value
2022-09-28T00:00:01.662Z,95.27
2022-09-28T00:00:32.492Z,94.90
2022-09-28T00:01:03.293Z,94.08
2022-09-28T00:01:34.289Z,93.87
2022-09-28T00:02:05.259Z,94.80
2022-09-28T00:02:36.190Z,94.70
2022-09-28T00:03:07.104Z,94.18
2022-09-28T00:03:37.921Z,93.98
2022-09-28T00:04:08.699Z,94.18
2022-09-28T00:04:39.456Z,94.49
2022-09-28T00:05:10.199Z,94.80
2022-09-28T00:05:41.006Z,95.31
2022-09-28T00:06:11.767Z,95.21
2022-09-28T00:06:42.538Z,94.90
2022-09-28T00:07:13.295Z,94.70
2022-09-28T00:07:44.061Z,94.49
2022-09-28T00:08:14.814Z,94.38
2022-09-28T00:08:45.556Z,94.38
2022-09-28T00:09:16.447Z,94.28
2022-09-28T00:09:47.337Z,94.28
2022-09-28T00:10:18.137Z,94.28
2022-09-28T00:10:48.904Z,94.18
2022-09-28T00:11:19.656Z,94.28
2022-09-28T00:11:50.405Z,94.38
2022-09-28T00:12:21.159Z,94.28
2022-09-28T00:12:51.931Z,94.38
2022-09-28T00:13:22.709Z,94.28
2022-09-28T00:13:53.482Z,94.28
2022-09-28T00:14:24.236Z,94.18
2022-09-28T00:14:54.991Z,94.59
2022-09-28T00:15:25.787Z,94.90
2022-09-28T00:15:56.615Z,95.31
2022-09-28T00:16:27.471Z,95.73
2022-09-28T00:16:58.300Z,95.83
2022-09-28T00:17:29.060Z,96.34
2022-09-28T00:17:59.819Z,96.24
2022-09-28T00:18:30.570Z,96.03
2022-09-28T00:19:01.348Z,95.73
2022-09-28T00:19:32.127Z,95.52
2022-09-28T00:20:02.875Z,95.10
2022-09-28T00:20:33.650Z,94.80
2022-09-28T00:21:04.429Z,95.00
2022-09-28T00:21:35.177Z,95.52
2022-09-28T00:22:05.940Z,95.93
2022-09-28T00:22:36.690Z,96.03
2022-09-28T00:23:07.456Z,96.14
2022-09-28T00:23:38.200Z,96.34
2022-09-28T00:24:09.000Z,96.45
2022-09-28T00:24:39.749Z,96.45
2022-09-28T00:25:10.528Z,96.14
2022-09-28T00:25:41.338Z,95.93
2022-09-28T00:26:12.139Z,95.83
2022-09-28T00:26:42.892Z,96.03
2022-09-28T00:27:13.695Z,96.24
2022-09-28T00:27:44.423Z,96.24
2022-09-28T00:28:15.175Z,96.34
2022-09-28T00:28:45.964Z,96.34
2022-09-28T00:29:16.896Z,96.24
2022-09-28T00:29:47.702Z,96.24
2022-09-28T00:30:18.469Z,96.45
2022-09-28T00:30:49.242Z,96.45
2022-09-28T00:31:20.077Z,96.66
2022-09-28T00:31:50.959Z,96.75
2022-09-28T00:32:21.723Z,96.75
2022-09-28T00:32:52.501Z,96.66
2022-09-28T00:33:23.301Z,96.55
2022-09-28T00:33:54.045Z,96.55
2022-09-28T00:34:24.786Z,96.75
2022-09-28T00:34:55.557Z,96.92
2022-09-28T00:35:26.300Z,97.13
2022-09-28T00:35:57.069Z,97.33
2022-09-28T00:36:27.842Z,97.53
2022-09-28T00:36:58.610Z,97.64
2022-09-28T00:37:29.390Z,97.64
2022-09-28T00:38:00.174Z,97.74
2022-09-28T00:38:30.956Z,97.85
2022-09-28T00:39:01.682Z,98.05
2022-09-28T00:39:32.427Z,98.05
2022-09-28T00:40:03.334Z,98.25
2022-09-28T00:40:34.154Z,98.25
2022-09-28T00:41:04.953Z,98.15
2022-09-28T00:41:35.748Z,98.15
2022-09-28T00:42:06.511Z,97.95
2022-09-28T00:42:37.276Z,97.69
2022-09-28T00:43:08.036Z,97.69
2022-09-28T00:43:38.845Z,97.69
2022-09-28T00:44:09.585Z,97.69
2022-09-28T00:44:40.335Z,97.49
2022-09-28T00:45:11.109Z,97.28
2022-09-28T00:45:41.896Z,97.28
2022-09-28T00:46:12.710Z,97.18
2022-09-28T00:46:43.477Z,97.08
2022-09-28T00:47:14.234Z,96.97
2022-09-28T00:47:44.997Z,96.88
2022-09-28T00:48:15.743Z,96.97
2022-09-28T00:48:46.511Z,97.08
2022-09-28T00:49:17.471Z,97.28
2022-09-28T00:49:48.311Z,97.60
2022-09-28T00:50:19.063Z,97.69
2022-09-28T00:50:49.860Z,97.69
2022-09-28T00:51:20.636Z,97.60
2022-09-28T00:51:51.398Z,97.39
2022-09-28T00:52:22.195Z,96.97
2022-09-28T00:52:52.980Z,96.97
2022-09-28T00:53:23.760Z,97.08
2022-09-28T00:53:54.497Z,97.18
2022-09-28T00:54:25.281Z,97.08
2022-09-28T00:54:56.029Z,96.97
2022-09-28T00:55:26.806Z,96.88
2022-09-28T00:55:57.602Z,96.77
2022-09-28T00:56:28.366Z,96.56
2022-09-28T00:56:59.117Z,96.56
2022-09-28T00:57:29.869Z,96.77
2022-09-28T00:58:00.650Z,96.88
2022-09-28T00:58:31.427Z,97.08
2022-09-28T00:59:02.198Z,97.08
2022-09-28T00:59:32.998Z,96.97
2022-09-28T01:00:03.769Z,96.97
2022-09-28T01:00:34.599Z,96.97
2022-09-28T01:01:05.519Z,97.08
2022-09-28T01:01:36.307Z,97.18
2022-09-28T01:02:07.119Z,97.18
2022-09-28T01:02:37.915Z,97.18
2022-09-28T01:03:08.709Z,97.28
2022-09-28T01:03:39.490Z,97.28
2022-09-28T01:04:10.248Z,97.28
2022-09-28T01:04:41.047Z,97.39
2022-09-28T01:05:11.822Z,97.60
2022-09-28T01:05:42.630Z,97.60
2022-09-28T01:06:13.410Z,97.75
2022-09-28T01:06:44.161Z,97.86
2022-09-28T01:07:14.942Z,97.86
2022-09-28T01:07:45.729Z,97.75
2022-09-28T01:08:16.492Z,97.65
2022-09-28T01:08:47.309Z,97.75
2022-09-28T01:09:18.216Z,97.86
2022-09-28T01:09:48.998Z,98.06
2022-09-28T01:10:19.776Z,97.96
2022-09-28T01:10:50.579Z,98.06
2022-09-28T01:11:21.390Z,98.06
2022-09-28T01:11:52.179Z,98.16
2022-09-28T01:12:23.032Z,98.16
2022-09-28T01:12:53.811Z,98.27
2022-09-28T01:13:24.601Z,98.27
2022-09-28T01:13:55.398Z,98.37
2022-09-28T01:14:26.170Z,98.47
2022-09-28T01:14:56.945Z,98.37
2022-09-28T01:15:27.682Z,98.16
2022-09-28T01:15:58.570Z,98.02
2022-09-28T01:16:29.376Z,97.91
2022-09-28T01:17:00.142Z,97.91
2022-09-28T01:17:30.910Z,98.12
2022-09-28T01:18:01.672Z,98.12
2022-09-28T01:18:32.448Z,98.22
2022-09-28T01:19:03.230Z,98.33
2022-09-28T01:19:33.987Z,98.33
2022-09-28T01:20:04.771Z,98.22
2022-09-28T01:20:35.533Z,98.22
2022-09-28T01:21:06.332Z,98.43
2022-09-28T01:21:37.093Z,98.43
2022-09-28T01:22:07.894Z,98.53
2022-09-28T01:22:38.702Z,98.53
2022-09-28T01:23:09.452Z,98.53
2022-09-28T01:23:40.202Z,98.63
2022-09-28T01:24:10.977Z,98.53
2022-09-28T01:24:41.777Z,98.43
2022-09-28T01:25:12.534Z,98.43
2022-09-28T01:25:43.340Z,98.43
2022-09-28T01:26:14.114Z,98.43
2022-09-28T01:26:44.894Z,98.43
2022-09-28T01:27:15.634Z,98.53
2022-09-28T01:27:46.403Z,98.59
2022-09-28T01:28:17.166Z,98.59
2022-09-28T01:28:47.909Z,98.59
2022-09-28T01:29:18.797Z,98.59
2022-09-28T01:29:49.555Z,98.49
2022-09-28T01:30:20.339Z,98.59
2022-09-28T01:30:51.114Z,98.59
2022-09-28T01:31:21.955Z,98.49
2022-09-28T01:31:52.781Z,98.07
2022-09-28T01:32:23.565Z,97.66
2022-09-28T01:32:54.319Z,97.56
2022-09-28T01:33:25.076Z,97.56
2022-09-28T01:33:55.854Z,97.66
2022-09-28T01:34:26.624Z,97.77
2022-09-28T01:34:57.399Z,97.97
2022-09-28T01:35:28.180Z,98.28
2022-09-28T01:35:58.967Z,98.38
2022-09-28T01:36:29.746Z,98.28
2022-09-28T01:37:00.648Z,98.38
2022-09-28T01:37:31.409Z,98.49
2022-09-28T01:38:02.210Z,98.59
2022-09-28T01:38:32.938Z,98.59
2022-09-28T01:39:03.732Z,98.59
2022-09-28T01:39:34.486Z,98.59
2022-09-28T01:40:05.250Z,98.59
2022-09-28T01:40:36.079Z,98.59
2022-09-28T01:41:06.879Z,98.07
2022-09-28T01:41:37.677Z,97.77
2022-09-28T01:42:08.439Z,97.56
2022-09-28T01:42:39.213Z,97.36
2022-09-28T01:43:09.978Z,97.45
2022-09-28T01:43:40.740Z,97.56
2022-09-28T01:44:11.535Z,97.66
2022-09-28T01:44:42.329Z,97.87
2022-09-28T01:45:13.098Z,98.18
2022-09-28T01:45:43.931Z,98.38
2022-09-28T01:46:14.748Z,98.59
2022-09-28T01:46:45.597Z,98.59
2022-09-28T01:47:16.453Z,98.59
2022-09-28T01:47:47.219Z,98.59
2022-09-28T01:48:17.966Z,98.07
2022-09-28T01:48:48.782Z,97.87
2022-09-28T01:49:19.524Z,97.87
2022-09-28T01:49:50.333Z,97.87
2022-09-28T01:50:21.149Z,98.07
2022-09-28T01:50:51.915Z,98.18
2022-09-28T01:51:22.687Z,98.38
2022-09-28T01:51:53.531Z,98.49
2022-09-28T01:52:24.281Z,98.69
2022-09-28T01:52:55.040Z,98.69
2022-09-28T01:53:25.809Z,98.49
2022-09-28T01:53:56.592Z,98.38
2022-09-28T01:54:27.348Z,98.28
2022-09-28T01:54:58.156Z,98.38
2022-09-28T01:55:28.911Z,98.38
2022-09-28T01:55:59.653Z,98.49
2022-09-28T01:56:30.412Z,98.59
2022-09-28T01:57:01.280Z,98.79
2022-09-28T01:57:32.051Z,98.38
2022-09-28T01:58:02.822Z,97.77
2022-09-28T01:58:33.597Z,97.66
2022-09-28T01:59:04.389Z,97.77
2022-09-28T02:00:35.437Z,98.18
2022-09-28T02:01:06.500Z,98.18
2022-09-28T02:01:37.403Z,98.38
2022-09-28T02:02:08.315Z,98.49
2022-09-28T02:02:39.197Z,98.28
2022-09-28T02:03:10.067Z,98.18
2022-09-28T02:03:40.850Z,98.28
2022-09-28T02:04:11.625Z,98.49
2022-09-28T02:04:42.489Z,98.59
2022-09-28T02:05:13.293Z,98.44
2022-09-28T02:05:44.113Z,97.77
2022-09-28T02:06:14.967Z,97.66
2022-09-28T02:06:45.872Z,97.97
2022-09-28T02:07:16.677Z,97.97
2022-09-28T02:07:47.520Z,97.92
2022-09-28T02:08:18.308Z,98.13
2022-09-28T02:08:49.193Z,97.97
2022-09-28T02:09:20.021Z,98.13
2022-09-28T02:09:50.826Z,98.33
2022-09-28T02:10:21.619Z,98.44
2022-09-28T02:10:52.420Z,98.65
2022-09-28T02:11:23.235Z,98.54
2022-09-28T02:11:54.181Z,98.24
2022-09-28T02:12:25.022Z,98.13
2022-09-28T02:12:55.833Z,97.92
2022-09-28T02:13:26.659Z,97.92
2022-09-28T02:13:57.459Z,98.13
2022-09-28T02:14:28.279Z,98.33
2022-09-28T02:14:59.099Z,98.33
2022-09-28T02:15:29.899Z,98.33
2022-09-28T02:16:00.746Z,98.13
2022-09-28T02:16:31.615Z,98.13
2022-09-28T02:17:02.460Z,98.13
2022-09-28T02:17:33.279Z,98.03
2022-09-28T02:18:04.130Z,97.92
2022-09-28T02:18:34.911Z,97.92
2022-09-28T02:19:05.786Z,97.72
2022-09-28T02:19:36.588Z,97.31
2022-09-28T02:20:07.467Z,97.41
2022-09-28T02:20:38.390Z,96.80
2022-09-28T02:21:09.167Z,96.48
2022-09-28T02:21:40.004Z,96.69
2022-09-28T02:22:10.827Z,97.20
2022-09-28T02:22:41.616Z,97.41
2022-09-28T02:23:12.475Z,97.31
2022-09-28T02:23:43.328Z,97.52
2022-09-28T02:24:17.159Z,98.24
2022-09-28T02:24:46.894Z,98.33
2022-09-28T02:25:17.684Z,98.33
2022-09-28T02:25:48.475Z,98.44
2022-09-28T02:26:19.285Z,98.13
2022-09-28T02:26:50.140Z,97.92
2022-09-28T02:27:20.965Z,97.72
2022-09-28T02:27:51.767Z,97.72
2022-09-28T02:28:22.571Z,97.92
2022-09-28T02:28:53.433Z,98.24
2022-09-28T02:29:24.247Z,98.03
2022-09-28T02:29:55.085Z,98.03
2022-09-28T02:30:25.887Z,97.10
2022-09-28T02:30:56.689Z,97.00
2022-09-28T02:31:27.513Z,97.31
2022-09-28T02:31:58.371Z,97.62
2022-09-28T02:32:29.163Z,97.72
2022-09-28T02:32:59.981Z,97.62
2022-09-28T02:33:30.777Z,97.72
2022-09-28T02:34:01.606Z,97.77
2022-09-28T02:34:32.426Z,97.92
2022-09-28T02:35:03.246Z,98.13
2022-09-28T02:35:34.058Z,98.24
2022-09-28T02:36:04.898Z,98.24
2022-09-28T02:36:35.747Z,97.92
2022-09-28T02:37:06.556Z,98.13
2022-09-28T02:37:37.349Z,97.62
2022-09-28T02:38:08.185Z,97.52
2022-09-28T02:38:38.975Z,97.31
2022-09-28T02:39:09.764Z,97.31
2022-09-28T02:39:40.563Z,97.52
2022-09-28T02:40:11.399Z,97.62
2022-09-28T02:40:42.262Z,97.41
2022-09-28T02:41:13.079Z,97.10
2022-09-28T02:41:43.897Z,97.00
2022-09-28T02:42:14.717Z,97.31
2022-09-28T02:42:45.566Z,97.52
2022-09-28T02:43:16.400Z,97.52
2022-09-28T02:43:47.252Z,96.90
2022-09-28T02:44:18.062Z,96.90
2022-09-28T02:44:48.870Z,96.84
2022-09-28T02:45:19.683Z,96.84
2022-09-28T02:45:50.598Z,97.15
2022-09-28T02:46:21.518Z,97.52
2022-09-28T02:46:52.309Z,97.45
2022-09-28T02:47:23.142Z,96.94
2022-09-28T02:47:54.795Z,97.25
2022-09-28T02:48:42.639Z,97.56
2022-09-28T02:49:19.886Z,97.05
2022-09-28T02:49:31.163Z,97.25
2022-09-28T02:50:02.083Z,97.56
2022-09-28T02:50:32.942Z,97.66
2022-09-28T02:51:03.741Z,97.66
2022-09-28T02:51:34.581Z,97.87
2022-09-28T02:52:05.420Z,98.18
2022-09-28T02:52:36.282Z,98.28
2022-09-28T02:53:07.146Z,98.28
2022-09-28T02:53:37.981Z,98.13
2022-09-28T02:54:08.758Z,98.13
2022-09-28T02:54:39.531Z,97.92
2022-09-28T02:55:10.389Z,97.45
2022-09-28T02:55:41.233Z,97.31
2022-09-28T02:56:12.062Z,97.52
2022-09-28T02:56:42.921Z,97.52
2022-09-28T02:57:13.795Z,97.52
2022-09-28T02:57:44.596Z,97.31
2022-09-28T02:58:15.415Z,97.20
2022-09-28T02:58:46.232Z,97.00
2022-09-28T02:59:17.112Z,97.00
2022-09-28T02:59:47.963Z,97.41
2022-09-28T03:00:18.783Z,97.52
2022-09-28T03:00:49.673Z,97.62
2022-09-28T03:01:20.649Z,97.31
2022-09-28T03:01:51.727Z,97.20
2022-09-28T03:02:22.694Z,97.31
2022-09-28T03:02:53.545Z,97.31
2022-09-28T03:03:24.371Z,97.41
2022-09-28T03:03:55.285Z,97.82
2022-09-28T03:04:26.124Z,98.03
2022-09-28T03:04:56.944Z,98.03
2022-09-28T03:05:27.775Z,97.82
2022-09-28T03:05:58.585Z,97.00
2022-09-28T03:06:29.472Z,97.00
2022-09-28T03:07:00.334Z,96.69
2022-09-28T03:07:31.142Z,96.80
2022-09-28T03:08:01.992Z,97.10
2022-09-28T03:08:32.831Z,97.52
2022-09-28T03:09:03.713Z,97.62
2022-09-28T03:09:34.623Z,97.41
2022-09-28T03:10:05.477Z,97.10
2022-09-28T03:10:36.316Z,97.00
2022-09-28T03:11:07.116Z,97.31
2022-09-28T03:11:37.957Z,97.52
2022-09-28T03:12:08.766Z,97.52
2022-09-28T03:12:39.595Z,97.52
2022-09-28T03:13:10.478Z,97.31
2022-09-28T03:13:41.301Z,97.31
2022-09-28T03:14:12.145Z,97.31
2022-09-28T03:14:43.001Z,97.41
2022-09-28T03:15:13.827Z,97.72
2022-09-28T03:15:48.650Z,97.41
2022-09-28T03:16:16.765Z,97.72
2022-09-28T03:16:47.657Z,98.03
2022-09-28T03:17:18.464Z,97.41
2022-09-28T03:17:49.276Z,97.31
2022-09-28T03:18:20.093Z,97.41
2022-09-28T03:18:50.916Z,97.41
2022-09-28T03:19:21.709Z,97.37
2022-09-28T03:19:52.510Z,97.67
2022-09-28T03:20:23.336Z,97.78
2022-09-28T03:20:54.150Z,97.67
2022-09-28T03:21:24.978Z,97.57
2022-09-28T03:21:55.820Z,97.37
2022-09-28T03:22:26.618Z,97.47
2022-09-28T03:23:22.744Z,97.47
2022-09-28T03:23:30.092Z,97.67
2022-09-28T03:24:00.929Z,97.78
2022-09-28T03:24:31.725Z,97.37
2022-09-28T03:25:02.522Z,96.75
2022-09-28T03:25:33.363Z,96.55
2022-09-28T03:26:04.151Z,96.34
2022-09-28T03:32:01.926Z,94.90
2022-09-28T03:32:32.764Z,95.10
2022-09-28T03:33:03.616Z,95.05
2022-09-28T03:33:34.427Z,94.95
2022-09-28T03:34:05.220Z,94.95
2022-09-28T03:34:36.058Z,95.25
2022-09-28T03:35:06.881Z,94.84
2022-09-28T03:35:37.725Z,95.25
2022-09-28T03:36:08.507Z,95.67
2022-09-28T03:36:39.279Z,96.08
2022-09-28T03:37:10.120Z,96.08
2022-09-28T03:37:40.939Z,96.39
2022-09-28T03:38:11.824Z,96.48
2022-09-28T03:38:42.648Z,96.28
2022-09-28T03:39:13.420Z,95.97
2022-09-28T03:39:44.203Z,95.56
2022-09-28T03:40:15.148Z,95.56
2022-09-28T03:40:46.081Z,96.08
2022-09-28T03:41:16.866Z,95.97
2022-09-28T03:41:47.723Z,95.77
2022-09-28T03:42:18.576Z,94.95
2022-09-28T03:42:49.400Z,95.25
2022-09-28T03:43:20.239Z,95.15
2022-09-28T03:43:51.062Z,95.36
2022-09-28T03:44:21.864Z,95.56
2022-09-28T03:44:52.676Z,95.87
2022-09-28T03:45:23.445Z,96.08
2022-09-28T03:45:54.280Z,96.18
2022-09-28T03:46:25.238Z,95.97
2022-09-28T03:46:56.150Z,95.46
2022-09-28T03:47:26.960Z,94.74
2022-09-28T03:47:57.734Z,94.33
2022-09-28T03:48:32.096Z,94.95
2022-09-28T03:49:00.492Z,95.46
2022-09-28T03:49:31.332Z,95.46
2022-09-28T03:50:02.142Z,95.46
2022-09-28T03:50:32.953Z,95.61
2022-09-28T03:51:03.790Z,95.30
2022-09-28T03:51:34.563Z,95.61
2022-09-28T03:52:05.400Z,95.97
2022-09-28T03:52:36.202Z,95.61
2022-09-28T03:53:07.019Z,95.20
2022-09-28T03:53:37.815Z,95.92
2022-09-28T03:54:08.641Z,96.33
2022-09-28T03:54:39.465Z,96.02
2022-09-28T03:55:10.272Z,96.12
2022-09-28T03:55:41.118Z,96.22
2022-09-28T03:56:11.932Z,95.71
2022-09-28T03:56:42.746Z,95.40
2022-09-28T03:57:13.593Z,96.02
2022-09-28T03:57:44.399Z,96.43
2022-09-28T03:58:15.214Z,96.48
2022-09-28T03:58:46.028Z,96.69
2022-09-28T03:59:16.968Z,96.80
2022-09-28T03:59:47.785Z,96.39
2022-09-28T04:00:18.588Z,96.28
2022-09-28T04:00:49.470Z,96.80
2022-09-28T04:01:20.343Z,96.90
2022-09-28T04:01:51.311Z,96.90
2022-09-28T04:02:22.164Z,97.00
2022-09-28T04:02:52.986Z,97.20
2022-09-28T04:03:23.777Z,97.31
2022-09-28T04:03:54.583Z,97.10
2022-09-28T04:04:25.405Z,97.10
2022-09-28T04:04:56.196Z,97.20
2022-09-28T04:05:27.004Z,97.10
2022-09-28T04:05:57.877Z,97.00
2022-09-28T04:06:28.658Z,96.59
2022-09-28T04:06:59.445Z,96.08
2022-09-28T04:07:31.242Z,96.18
2022-09-28T04:08:02.199Z,96.18
2022-09-28T04:08:33.015Z,96.39
2022-09-28T04:09:03.786Z,96.39
2022-09-28T04:09:34.647Z,95.77
2022-09-28T04:10:05.424Z,95.25
2022-09-28T04:10:36.255Z,94.95
2022-09-28T04:11:07.064Z,94.74
2022-09-28T04:11:59.436Z,95.36
2022-09-28T04:12:10.604Z,95.67
2022-09-28T04:12:41.390Z,96.08
2022-09-28T04:13:12.217Z,95.46
2022-09-28T04:13:43.159Z,95.67
2022-09-28T04:14:14.004Z,94.89
2022-09-28T04:14:44.770Z,94.89
2022-09-28T04:15:15.552Z,95.61
2022-09-28T04:15:46.348Z,96.22
2022-09-28T04:16:17.206Z,96.43
2022-09-28T04:16:48.053Z,96.64
2022-09-28T04:17:18.903Z,96.22
2022-09-28T04:17:49.736Z,95.30
2022-09-28T04:18:20.538Z,95.09
2022-09-28T04:18:51.353Z,94.58
2022-09-28T04:19:22.129Z,95.30
2022-09-28T04:19:52.949Z,95.81
2022-09-28T04:20:23.769Z,96.12
2022-09-28T04:20:54.608Z,96.33
2022-09-28T04:21:25.427Z,96.64
2022-09-28T04:21:56.237Z,96.94
2022-09-28T04:22:27.197Z,97.36
2022-09-28T04:22:58.022Z,97.25
2022-09-28T04:23:28.820Z,97.36
2022-09-28T04:23:59.641Z,96.73
2022-09-28T04:24:30.471Z,95.81
2022-09-28T04:25:01.311Z,95.20
2022-09-28T04:25:32.104Z,94.78
2022-09-28T04:26:02.941Z,95.09
2022-09-28T04:26:33.748Z,95.71
2022-09-28T04:27:04.562Z,95.50
2022-09-28T04:27:35.420Z,94.58
2022-09-28T04:28:06.222Z,94.83
2022-09-28T04:28:37.013Z,94.83
2022-09-28T04:29:07.883Z,95.75
2022-09-28T04:29:38.751Z,96.68
2022-09-28T04:30:09.547Z,96.99
2022-09-28T04:30:40.382Z,96.47
2022-09-28T04:31:11.187Z,95.86
2022-09-28T04:31:42.060Z,95.55
2022-09-28T04:32:12.943Z,95.65
2022-09-28T04:32:43.764Z,95.65
2022-09-28T04:33:14.608Z,96.17
2022-09-28T04:33:45.443Z,96.06
2022-09-28T04:34:16.280Z,96.37
2022-09-28T04:34:47.147Z,96.58
2022-09-28T04:35:17.944Z,96.68
2022-09-28T04:35:48.798Z,96.06
2022-09-28T04:36:19.610Z,95.65
2022-09-28T04:36:50.446Z,95.86
2022-09-28T04:37:21.264Z,95.55
2022-09-28T04:37:52.101Z,95.34
2022-09-28T04:38:41.546Z,94.93
2022-09-28T04:38:55.582Z,95.14
2022-09-28T04:39:26.415Z,95.45
2022-09-28T04:39:57.214Z,95.86
2022-09-28T04:40:28.091Z,96.27
2022-09-28T04:40:58.941Z,96.27
2022-09-28T04:41:29.783Z,96.17
2022-09-28T04:42:00.643Z,96.27
2022-09-28T04:42:31.503Z,95.86
2022-09-28T04:43:02.368Z,96.06
2022-09-28T04:43:33.155Z,95.65
2022-09-28T04:44:04.119Z,95.86
2022-09-28T04:44:34.988Z,96.33
2022-09-28T04:45:05.843Z,96.84
2022-09-28T04:45:36.704Z,97.05
2022-09-28T04:46:07.685Z,96.02
2022-09-28T04:46:38.549Z,95.81
2022-09-28T04:47:09.391Z,96.22
2022-09-28T04:47:40.312Z,96.53
2022-09-28T04:48:11.162Z,96.33
2022-09-28T04:48:42.027Z,96.64
2022-09-28T04:49:12.958Z,96.94
2022-09-28T04:49:43.876Z,95.92
2022-09-28T04:50:14.756Z,95.20
2022-09-28T04:50:45.706Z,95.20
2022-09-28T04:51:16.530Z,95.92
2022-09-28T04:51:47.365Z,96.64
2022-09-28T04:52:18.835Z,96.73
2022-09-28T04:52:49.779Z,96.84
2022-09-28T04:53:20.554Z,96.02
2022-09-28T04:53:51.322Z,94.78
2022-09-28T04:54:22.077Z,94.68
2022-09-28T04:54:52.827Z,94.58
2022-09-28T04:55:23.596Z,94.99
2022-09-28T04:55:54.357Z,94.58
2022-09-28T04:56:25.117Z,94.78
2022-09-28T04:56:55.868Z,94.78
2022-09-28T04:57:26.617Z,94.78
2022-09-28T04:57:57.389Z,94.78
2022-09-28T04:58:28.137Z,95.20
2022-09-28T04:58:58.896Z,95.09
2022-09-28T04:59:29.655Z,95.30
2022-09-28T05:00:00.409Z,95.09
2022-09-28T05:00:31.175Z,95.50
2022-09-28T05:01:01.991Z,95.92
2022-09-28T05:01:32.803Z,96.22
2022-09-28T05:02:03.613Z,96.22
2022-09-28T05:02:34.448Z,96.02
2022-09-28T05:03:05.226Z,96.12
2022-09-28T05:03:35.960Z,96.64
2022-09-28T05:04:06.719Z,96.84
2022-09-28T05:04:37.468Z,96.94
2022-09-28T05:05:08.231Z,97.15
2022-09-28T05:05:38.979Z,97.15
2022-09-28T05:06:09.729Z,97.15
2022-09-28T05:06:40.505Z,96.53
2022-09-28T05:07:11.250Z,96.02
2022-09-28T05:07:42.029Z,95.92
2022-09-28T05:08:12.788Z,96.02
2022-09-28T05:08:43.541Z,96.12
2022-09-28T05:09:14.351Z,96.43
2022-09-28T05:09:45.248Z,96.84
2022-09-28T05:10:15.998Z,96.94
2022-09-28T05:10:47.739Z,96.84
2022-09-28T05:11:18.501Z,96.84
2022-09-28T05:11:49.261Z,96.94
2022-09-28T05:12:20.010Z,96.80
2022-09-28T05:12:50.812Z,96.69
2022-09-28T05:13:21.570Z,96.69
2022-09-28T05:13:52.326Z,96.69
2022-09-28T05:14:23.096Z,96.80
2022-09-28T05:14:53.840Z,96.08
2022-09-28T05:15:24.605Z,94.84
2022-09-28T05:15:58.882Z,94.74
2022-09-28T05:16:27.997Z,94.43
2022-09-28T05:16:58.841Z,94.84
2022-09-28T05:17:32.098Z,95.05
2022-09-28T05:17:59.831Z,95.56
2022-09-28T05:18:30.670Z,95.77
2022-09-28T05:19:01.416Z,95.97
2022-09-28T05:19:32.172Z,95.25
2022-09-28T05:20:02.930Z,94.84
2022-09-28T05:20:33.672Z,94.74
2022-09-28T05:21:04.431Z,94.84
2022-09-28T05:21:35.193Z,94.95
2022-09-28T05:22:05.954Z,94.74
2022-09-28T05:22:36.725Z,94.12
2022-09-28T05:23:07.482Z,94.54
2022-09-28T05:23:38.253Z,94.95
2022-09-28T05:24:09.014Z,95.05
2022-09-28T05:24:39.774Z,94.48
2022-09-28T05:25:10.523Z,93.96
2022-09-28T05:25:41.276Z,93.44
2022-09-28T05:26:12.044Z,93.65
2022-09-28T05:26:42.802Z,94.37
2022-09-28T05:27:13.552Z,95.09
2022-09-28T05:27:44.353Z,94.99
2022-09-28T05:28:15.113Z,94.78
2022-09-28T05:28:45.874Z,95.40
2022-09-28T05:29:16.777Z,94.99
2022-09-28T05:29:47.604Z,95.50
2022-09-28T05:30:18.352Z,95.92
2022-09-28T05:30:49.105Z,95.92
2022-09-28T05:31:19.916Z,95.81
2022-09-28T05:31:50.709Z,96.33
2022-09-28T05:32:21.454Z,96.43
2022-09-28T05:32:52.225Z,96.64
2022-09-28T05:33:22.975Z,96.33
2022-09-28T05:33:53.734Z,96.02
2022-09-28T05:34:24.486Z,95.81
2022-09-28T05:34:55.246Z,95.92
2022-09-28T05:35:26.022Z,96.12
2022-09-28T05:36:00.927Z,96.12
2022-09-28T05:36:29.115Z,96.33
2022-09-28T05:36:59.875Z,96.02
2022-09-28T05:37:30.625Z,96.02
2022-09-28T05:38:01.416Z,95.81
2022-09-28T05:38:32.166Z,95.61
2022-09-28T05:39:02.916Z,95.20
2022-09-28T05:39:33.667Z,94.17
2022-09-28T05:40:04.419Z,94.48
2022-09-28T05:40:35.214Z,94.27
2022-09-28T05:41:06.946Z,95.09
2022-09-28T05:41:37.861Z,95.50
2022-09-28T05:42:09.566Z,95.81
2022-09-28T05:42:40.315Z,95.92
2022-09-28T05:43:11.097Z,96.33
2022-09-28T05:43:41.848Z,96.33
2022-09-28T05:44:12.639Z,96.33
2022-09-28T05:44:43.385Z,96.33
2022-09-28T05:45:14.136Z,95.09
2022-09-28T05:45:44.945Z,94.78
2022-09-28T05:46:15.760Z,95.09
2022-09-28T05:46:46.529Z,95.81
2022-09-28T05:47:17.295Z,95.92
2022-09-28T05:47:48.135Z,95.61
2022-09-28T05:48:18.907Z,95.81
2022-09-28T05:48:49.662Z,95.50
2022-09-28T05:49:20.429Z,95.92
2022-09-28T05:49:51.177Z,96.53
2022-09-28T05:50:21.939Z,96.94
2022-09-28T05:50:52.744Z,97.05
2022-09-28T05:51:23.490Z,96.53
2022-09-28T05:51:54.237Z,96.22
2022-09-28T05:52:25.002Z,94.89
2022-09-28T05:52:55.770Z,95.40
2022-09-28T05:53:26.518Z,95.09
2022-09-28T05:53:59.759Z,94.99
2022-09-28T05:54:29.890Z,94.99
2022-09-28T05:55:00.640Z,95.61
2022-09-28T05:55:31.472Z,95.61
2022-09-28T05:56:02.259Z,95.92
2022-09-28T05:56:33.015Z,96.53
2022-09-28T05:57:03.769Z,96.64
2022-09-28T05:57:34.520Z,96.64
2022-09-28T05:58:05.294Z,95.92
2022-09-28T05:58:36.040Z,95.09
2022-09-28T05:59:06.810Z,94.99
2022-09-28T05:59:37.573Z,95.09
2022-09-28T06:00:08.343Z,95.09
2022-09-28T06:00:39.088Z,95.20
2022-09-28T06:01:09.944Z,95.40
2022-09-28T06:01:40.767Z,95.92
2022-09-28T06:02:11.557Z,96.12
2022-09-28T06:02:42.369Z,95.81
2022-09-28T06:03:13.165Z,96.12
2022-09-28T06:03:43.912Z,96.22
2022-09-28T06:04:14.835Z,96.64
2022-09-28T06:04:45.681Z,96.64
2022-09-28T06:05:16.431Z,96.22
2022-09-28T06:05:47.193Z,96.33
2022-09-28T06:06:17.957Z,96.12
2022-09-28T06:06:48.713Z,95.71
2022-09-28T06:07:19.463Z,95.50
2022-09-28T06:07:50.222Z,96.12
2022-09-28T06:08:20.982Z,96.64
2022-09-28T06:08:51.743Z,96.43
2022-09-28T06:09:25.814Z,96.02
2022-09-28T06:09:53.783Z,96.02
2022-09-28T06:10:24.531Z,96.02
2022-09-28T06:10:55.284Z,96.53
2022-09-28T06:11:26.042Z,96.33
2022-09-28T06:11:56.793Z,96.64
2022-09-28T06:12:27.544Z,96.73
2022-09-28T06:12:58.293Z,96.64
2022-09-28T06:13:29.814Z,96.73
2022-09-28T06:14:00.641Z,96.94
2022-09-28T06:14:31.402Z,96.84
2022-09-28T06:15:02.144Z,96.33
2022-09-28T06:15:32.893Z,95.40
2022-09-28T06:16:03.634Z,94.99
2022-09-28T06:16:34.413Z,95.50
2022-09-28T06:17:05.308Z,95.50
2022-09-28T06:17:36.075Z,95.30
2022-09-28T06:18:06.829Z,96.12
2022-09-28T06:18:37.601Z,96.43
2022-09-28T06:19:08.354Z,96.22
2022-09-28T06:19:39.104Z,96.02
2022-09-28T06:20:09.854Z,96.53
2022-09-28T06:20:40.605Z,96.84
2022-09-28T06:21:11.375Z,96.73
2022-09-28T06:21:42.146Z,96.84
2022-09-28T06:22:12.905Z,96.53
2022-09-28T06:22:43.676Z,95.61
2022-09-28T06:23:14.453Z,95.09
2022-09-28T06:23:48.977Z,95.30
2022-09-28T06:24:17.311Z,96.22
2022-09-28T06:24:48.186Z,96.12
2022-09-28T06:25:18.939Z,95.81
2022-09-28T06:25:49.706Z,95.81
2022-09-28T06:26:20.467Z,94.68
2022-09-28T06:26:51.217Z,94.58
2022-09-28T06:27:21.996Z,94.89
2022-09-28T06:27:52.758Z,95.71
2022-09-28T06:28:23.513Z,96.22
2022-09-28T06:28:54.260Z,96.22
2022-09-28T06:29:25.011Z,95.81
2022-09-28T06:29:55.774Z,94.89
2022-09-28T06:30:26.543Z,94.78
2022-09-28T06:30:57.348Z,95.50
2022-09-28T06:31:28.117Z,95.92
2022-09-28T06:31:58.884Z,96.12
2022-09-28T06:32:29.657Z,95.61
2022-09-28T06:33:01.181Z,95.61
2022-09-28T06:33:31.959Z,95.50
2022-09-28T06:34:02.718Z,95.71
2022-09-28T06:34:33.469Z,95.92
2022-09-28T06:35:04.227Z,95.71
2022-09-28T06:35:34.986Z,95.61
2022-09-28T06:36:05.759Z,95.92
2022-09-28T06:36:36.517Z,95.92
2022-09-28T06:37:07.287Z,96.12
2022-09-28T06:37:38.041Z,96.22
2022-09-28T06:38:08.779Z,96.22
2022-09-28T06:38:39.550Z,95.61
2022-09-28T06:39:10.300Z,96.02
2022-09-28T06:39:41.059Z,95.81
2022-09-28T06:40:11.813Z,95.81
2022-09-28T06:40:45.632Z,96.18
2022-09-28T06:41:13.345Z,96.28
2022-09-28T06:41:44.089Z,96.08
2022-09-28T06:42:14.839Z,95.87
2022-09-28T06:42:45.587Z,95.97
2022-09-28T06:43:16.351Z,96.48